Portada
METAR-TAF:

METAR-TAF

Aeroports :

Biak, Indonèsia

latitud: 01-11S, longitud: 136-07E, altitud: 11 m

METAR: manca

Hora: 21:06 (14:06 UTC)

Pronòstic

L'informe es va fer fa 3 hores i 6 minuts, a les 11:00 UTC
Pronòstic vàlid del 14 a les 12 UTC al 15 a les 18 UTC
Vent 6 kt del Sud
Visibilitat 10 km o més
Núvols disperses a una alçada de 1800 ft
Temporalment
l' 14 a les 20 UTC al 15 a les 00 UTC
Visibilitat: 5000 m
Escasses núvols a una alçada de 1700 ft, Cumulonimbus.
tempesta, pluja

TAF: WABB 141100Z 1412/1518 18006KT 9999 SCT018 TEMPO 1420/1500 5000 TSRA FEW017CB

Observacions i pronòstics meteorològics de més de 4000 aeroports (METAR i TAF).

Les estacions disponibles són els punts grocs i vermells al mapa.

Posi el ratolí al punt desitjat per veure el nom de l'estació.

Feu clic per veure les observacions i els pronòstics meteorològics.

Per canviar el mapa: feu clic els botons verds amb una creu de color negre per apropar; al botó verd amb un guió per allunyar la imatge; o en les fletxes verdes per a mapes adjacents.


METAR-TAF: